Meteo Giornale » Osservazioni meteo Italia » Genova-Sestri

ore: 14:50 - Osservazioni Meteo Genova-Sestri
Lat. 44° 25' N Lon. 8° 51' E Alt. 2 metri s.l.m.

sereno Europe/Rome

16 °C

Sereno

Temp. 24 Ore

12 °C

18 °C

Sud-Ovest

11.1 Km/h

Dew point 10 °C

Umidità 67 %

Visibilità  10 Km

Il sole sorge alle ore 07:10

Il sole tramonta alle ore 19:48

Data e Ora Cielo e Fenomeni T °C DP °C Um. % Pres. hPa Vis. km Vento km/h
Oggi h: 14:50 sereno Sereno 16 10 67 1024 10 SO 11.1
Oggi h: 14:20 sereno Sereno 16 10 67 1024 10 SO 13
Oggi h: 13:50 sereno Sereno 16 11 72 1024 10 SO 13
Oggi h: 13:20 sereno Sereno 16 10 67 1024 10 SO 13
Oggi h: 12:50 sereno Sereno 16 9 63 1024 10 O/SO 14.8
Oggi h: 12:20 sereno Sereno 16 8 58 1024 10 O/SO 14.8
Oggi h: 11:50 sereno Sereno 16 9 63 1024 10 S/SO 7.4
Oggi h: 11:20 sereno Sereno 15 8 62 1024 10 SO 9.3
Oggi h: 10:50 sereno Sereno 15 4 47 1024 10 SE 11.1
Oggi h: 10:20 sereno Sereno 15 5 51 1024 10 E/SE 11.1
Oggi h: 09:50 sereno Sereno 15 3 44 1024 10 N 3.7
Oggi h: 09:20 sereno Sereno 14 2 44 1024 10 N 5.5
Oggi h: 08:50 sereno Sereno 13 2 47 1024 10 N 5.5
Oggi h: 08:20 sereno Sereno 13 1 43 1024 10 NO 9.3
Oggi h: 07:50 sereno Sereno 13 1 43 1024 10 NE 20.3
Oggi h: 07:20 sereno Sereno 12 1 46 1023 10 N/NE 16.7
Oggi h: 06:50 sereno Sereno 13 1 43 1023 10 N/NE 14.8
Oggi h: 06:20 sereno Sereno 13 1 43 1024 10 N/NE 14.8
Oggi h: 05:50 sereno Sereno 13 1 43 1024 10 N/NE 11.1
Oggi h: 05:20 sereno Sereno 13 1 43 1024 10 N/NE 11.1
Oggi h: 04:50 sereno Sereno 12 1 46 1024 10 N 5.5
Oggi h: 04:20 sereno Sereno 13 1 43 1024 10 NE 7.4
Oggi h: 03:50 sereno Sereno 13 1 43 1024 10 NE 14.8
Oggi h: 03:20 sereno Sereno 13 1 43 1024 10 E/NE 16.7
Oggi h: 02:50 sereno Sereno 13 2 47 1024 10 E/NE 14.8
Oggi h: 02:20 sereno Sereno 13 1 43 1024 10 NE 11.1
Oggi h: 01:50 sereno Sereno 13 2 47 1024 10 E/NE 16.7
Oggi h: 01:20 sereno Sereno 13 1 43 1024 10 E/NE 14.8
Oggi h: 00:50 sereno Sereno 13 1 43 1024 10 E/NE 16.7
Oggi h: 00:20 sereno Sereno 13 1 43 1024 10 E/NE 16.7
Ieri h: 23:50 sereno Sereno 14 1 41 1024 10 E/NE 14.8
Ieri h: 23:20 sereno Sereno 14 2 44 1024 10 NE 18.5
Ieri h: 22:50 sereno Sereno 13 2 47 1024 10 NE 18.5
Ieri h: 22:20 sereno Sereno 14 2 44 1024 10 NE 16.7
Ieri h: 21:50 sereno Sereno 14 2 44 1023 10 E/NE 13
Ieri h: 21:20 sereno Sereno 15 1 38 1023 10 N/NE 13
Ieri h: 20:50 sereno Sereno 15 1 38 1023 10 N/NE 14.8
Ieri h: 20:20 sereno Sereno 15 1 38 1022 10 N/NE 14.8
Ieri h: 19:50 sereno Sereno 16 1 36 1022 10 N/NE 18.5
Ieri h: 19:20 sereno Sereno 16 1 36 1022 10 N/NE 24
Ieri h: 18:50 sereno Sereno 17 1 33 1022 10 N/NE 20.3
Ieri h: 18:20 sereno Sereno 17 0 31 1022 10 N/NE 24
Ieri h: 17:50 sereno Sereno 17 1 33 1022 10 N 22.2
Ieri h: 17:20 sereno Sereno 18 1 31 1022 10 N 20.3
Ieri h: 16:50 sereno Sereno 18 1 31 1022 10 N 22.2
Ieri h: 16:20 sereno Sereno 18 3 36 1022 10 N/NO 20.3
Ieri h: 15:50 sereno Sereno 18 4 39 1022 10 NO 25.9